METAR v bližini

 

LJLJ - Ljubljana/Brnik, Slovenia
Oddaljenost od postaje: W 41km
Podatki zajeti: 16/04/2021 09:30
Rahlo oblačno
Rahlo oblačno
 Veter iz smeri spremenljiv
Veter: spremenljiv 4 km/h
Temperatura: 6°C
Rosišče: -3°C
Vlažnost: 53%
Tlak: 1021 hPa
Oblačnost: Rahlo oblačno
Vidljivost: 10 km
Podrobnosti o oblakih: Rahlo oblačno 1829 m
2021/04/16 07:30 LJLJ 160730Z VRB02KT 9999 FEW060 06/M03 Q1021 NOSIG
LJMB - Maribor, Slovenia
Oddaljenost od postaje: NE 63km
Podatki zajeti: 16/04/2021 09:30
Jasno
Jasno
 Veter iz smeri SSE
Veter: SSE 6 km/h
Temperatura: 5°C
Rosišče: -2°C
Vlažnost: 61%
Tlak: 1022 hPa
Stanje: Jasno
Vidljivost: večja od 10 km
2021/04/16 07:30 LJMB 160730Z 15003KT 080V190 CAVOK 05/M02 Q1022
 
LJPZ - Portoroz, Slovenia
Oddaljenost od postaje: SW 130km
Podatki zajeti: 16/04/2021 09:30
Jasno
Jasno
 Veter iz smeri N
Veter: N 4 km/h
Temperatura: 10°C
Rosišče: 1°C
Vlažnost: 54%
Tlak: 1021 hPa
Stanje: Jasno
Vidljivost: večja od 10 km
2021/04/16 07:30 LJPZ 160730Z 01002KT CAVOK 10/01 Q1021
LJCE - Cerklje, Slovenia
Oddaljenost od postaje: ESE 49km
Podatki zajeti: 16/04/2021 09:30
Jasno
Jasno
 Veter iz smeri spremenljiv
Veter: spremenljiv 4 km/h
Temperatura: 6°C
Rosišče: 0°C
Vlažnost: 66%
Tlak: 1022 hPa
Stanje: Jasno
Vidljivost: večja od 10 km
2021/04/16 07:30 LJCE 160730Z VRB02KT CAVOK 06/M00 Q1022 RMK BLU
 
LDZA - Zagreb/Pleso, Croatia
Oddaljenost od postaje: ESE 96km
Podatki zajeti: 16/04/2021 09:30
Jasno
Jasno
 Veter iz smeri spremenljiv
Veter: spremenljiv 9 km/h
Temperatura: 7°C
Občutek mraza zaradi vetra: 6°C
Rosišče: 0°C
Vlažnost: 61%
Tlak: 1023 hPa
Stanje: Jasno
Vidljivost: večja od 10 km
2021/04/16 07:30 LDZA 160730Z VRB05KT CAVOK 07/M00 Q1023 NOSIG
LDRI - Rijeka/Omisalj, Croatia
Oddaljenost od postaje: SSW 109km
Podatki zajeti: 16/04/2021 09:30
Jasno
Jasno
 Veter iz smeri spremenljiv
Veter: spremenljiv 6 km/h
Temperatura: 11°C
Rosišče: -6°C
Vlažnost: 30%
Tlak: 1021 hPa
Stanje: Jasno
Vidljivost: večja od 10 km
2021/04/16 07:30 LDRI 160730Z VRB03KT CAVOK 11/M06 Q1021
 
LDPL - Pula, Croatia
Oddaljenost od postaje: SSW 164km
Podatki zajeti: 16/04/2021 09:30
Jasno
Jasno
 Veter iz smeri ENE
Veter: ENE 20 km/h
Temperatura: 11°C
Rosišče: -3°C
Vlažnost: 38%
Tlak: 1020 hPa
Stanje: Jasno
Vidljivost: večja od 10 km
2021/04/16 07:30 LDPL 160730Z 07011KT CAVOK 11/M03 Q1020 NOSIG
LOWK - Klagenfurt(Civ/M, Austria
Oddaljenost od postaje: NW 76km
Podatki zajeti: 16/04/2021 09:20
Rahlo oblačno
Rahlo oblačno
 Veter iz smeri WNW
Veter: WNW 6 km/h
Temperatura: 4°C
Rosišče: -7°C
Vlažnost: 45%
Tlak: 1021 hPa
Oblačnost: Rahlo oblačno
Vidljivost: 10 km
Podrobnosti o oblakih: Rahlo oblačno 1829 m
2021/04/16 07:20 LOWK 160720Z 30003KT 240V340 9999 FEW060 04/M07 Q1021 NOSIG
 
LOWG - Graz (mil/Civ), Austria
Oddaljenost od postaje: NNE 100km
Podatki zajeti: 16/04/2021 09:20
Rahlo oblačno
Rahlo oblačno
 Veter iz smeri spremenljiv
Veter: spremenljiv 4 km/h
Temperatura: 4°C
Rosišče: -2°C
Vlažnost: 65%
Tlak: 1021 hPa
Oblačnost: Rahlo oblačno
Vidljivost: 10 km
Podrobnosti o oblakih: Rahlo oblačno 2134 m
2021/04/16 07:20 LOWG 160720Z VRB02KT 9999 FEW070 04/M02 Q1021 NOSIG
LOAN - Wr.neustadt East, Austria
Oddaljenost od postaje: NNE 212km
Podatki zajeti: 16/04/2021 09:00
Pretežno oblačno
Pretežno oblačno
 Veter iz smeri NW
Veter: NW 9 km/h
Oblačnost: Pretežno oblačno
Podrobnosti o oblakih: Rahlo oblačno 1219 m
Delno oblačno 1524 m
Pretežno oblačno 2438 m
2021/04/16 07:00 LOAN 160700Z 32005KT 35KM FEW040CU SCT050SC BKN080AC
 
LIPQ - Ronchi Legionari, Italy
Oddaljenost od postaje: SW 35km
Podatki zajeti: 16/04/2021 09:20
Jasno
Jasno
 Veter iz smeri spremenljiv
Veter: spremenljiv 2 km/h
Temperatura: 9°C
Rosišče: -1°C
Vlažnost: 50%
Tlak: 1021 hPa
Oblačnost: Jasno
Vidljivost: 10 km
2021/04/16 07:20 LIPQ 160720Z AUTO VRB01KT 9999 NCD 09/M01 Q1021
LIVT - Trieste, Italy
Oddaljenost od postaje: WSW 109km
Podatki zajeti: 16/04/2021 08:55
Jasno
Jasno
 Veter iz smeri NE
Veter: NE 11 km/h
Temperatura: 9°C
Občutek mraza zaradi vetra: 7°C
Rosišče: -5°C
Vlažnost: 37%
Tlak: 1020 hPa
Stanje: Jasno
Vidljivost: večja od 10 km
2021/04/16 06:55 LIVT 160655Z 04006KT CAVOK 09/M05 Q1020 RMK SKC QUK 1 QUL 1 NE VIS MAR 20 KM VIS MIN 9999
 
LIVO - Tarvisio, Italy
Oddaljenost od postaje: NNW 49km
Podatki zajeti: 16/04/2021 08:55
Jasno
Jasno
 Veter iz smeri SE
Veter: SE 4 km/h
Temperatura: 1°C
Rosišče: -4°C
Vlažnost: 70%
Tlak: 1019 hPa
Stanje: Jasno
Vidljivost: večja od 10 km
2021/04/16 06:55 LIVO 160655Z 14002KT CAVOK 01/M04 Q1019 RMK SKC VIS MIN 9999
LIPZ - Venezia/Tessera, Italy
Oddaljenost od postaje: WSW 217km
Podatki zajeti: 16/04/2021 09:20
Jasno
Jasno
 Veter iz smeri NE
Veter: NE 15 km/h
Temperatura: 9°C
Občutek mraza zaradi vetra: 7°C
Rosišče: 2°C
Vlažnost: 62%
Tlak: 1021 hPa
Stanje: Jasno
Vidljivost: večja od 10 km
2021/04/16 07:20 LIPZ 160720Z 05008KT CAVOK 09/02 Q1021 NOSIG
 
LHSM - Balaton, Hungary
Oddaljenost od postaje: ENE 177km
Podatki zajeti: 16/04/2021 09:15
Jasno
Jasno
 Veter iz smeri N
Veter: N 13 km/h
Temperatura: 6°C
Občutek mraza zaradi vetra: 3°C
Rosišče: -1°C
Vlažnost: 61%
Tlak: 1022 hPa
Stanje: Jasno
Vidljivost: večja od 10 km
2021/04/16 07:15 LHSM 160715Z AUTO 35007KT 310V020 CAVOK 06/M01 Q1022 NOSIG